Time;durP1;ratioP1;P1;durP2;ratioP2;P2;SDS_P1;SDS_P2;PMS_P1;PMS_P2;Temp;Humidity;BMP_temperature;BMP_pressure;BME280_temperature;BME280_humidity;BME280_pressure;Samples;Min_cycle;Max_cycle;Signal;HPM_P1;HPM_P2
2023/05/12 00:00:22;;;;;;;4.13;3.73;;;;;;;16.46;58.56;98458.91;6951501;28;20228;-81
2023/05/12 00:03:45;;;;;;;4.30;3.70;;;;;;;16.08;58.89;98440.63;6947519;28;20293;-81
2023/05/12 00:07:07;;;;;;;3.90;3.60;;;;;;;16.25;58.59;98454.19;6948012;28;20276;-80
2023/05/12 00:10:29;;;;;;;4.60;4.07;;;;;;;15.86;59.98;98455.22;6946556;28;20228;-80
2023/05/12 00:13:50;;;;;;;5.67;3.67;;;;;;;16.05;60.22;98427.50;6946854;28;20364;-80
2023/05/12 00:17:12;;;;;;;3.90;3.60;;;;;;;16.26;59.05;98439.50;6947676;28;20254;-80
2023/05/12 00:20:35;;;;;;;3.40;3.20;;;;;;;16.21;58.77;98453.06;6946628;28;20269;-80
2023/05/12 00:23:57;;;;;;;6.67;3.60;;;;;;;15.97;59.13;98443.41;6946314;28;20363;-80
2023/05/12 00:27:18;;;;;;;5.10;3.83;;;;;;;15.73;59.86;98453.63;6946961;28;20215;-80
2023/05/12 00:30:40;;;;;;;5.10;3.63;;;;;;;15.64;60.59;98432.56;6946911;28;20361;-80
2023/05/12 00:34:01;;;;;;;4.17;3.80;;;;;;;15.94;59.60;98436.59;6946631;28;20685;-80
2023/05/12 00:37:24;;;;;;;4.03;3.67;;;;;;;16.16;58.71;98444.81;6947486;28;20236;-82
2023/05/12 00:40:47;;;;;;;4.43;4.13;;;;;;;15.84;59.33;98433.72;6945746;28;20204;-80
2023/05/12 00:44:08;;;;;;;4.90;4.50;;;;;;;15.32;60.46;98444.97;6946199;28;20257;-80
2023/05/12 00:47:31;;;;;;;4.70;4.30;;;;;;;14.77;62.65;98406.75;6946388;28;20752;-80
2023/05/12 00:50:52;;;;;;;5.10;4.53;;;;;;;15.37;61.82;98435.06;6946149;28;20234;-80
2023/05/12 00:54:16;;;;;;;8.17;5.00;;;;;;;15.55;61.26;98439.44;6945776;28;20267;-80
2023/05/12 00:57:37;;;;;;;6.30;4.93;;;;;;;15.74;61.17;98438.97;6946672;28;20296;-80
2023/05/12 01:00:59;;;;;;;5.20;4.53;;;;;;;15.96;60.28;98441.75;6946458;28;20206;-80
2023/05/12 01:04:20;;;;;;;4.43;4.00;;;;;;;15.93;59.77;98445.00;6947796;28;20278;-80
2023/05/12 01:07:42;;;;;;;7.00;4.47;;;;;;;15.87;59.92;98446.78;6965303;28;20223;-81
2023/05/12 01:11:05;;;;;;;4.20;3.90;;;;;;;15.46;60.06;98425.44;6946114;28;20273;-81
2023/05/12 01:14:26;;;;;;;6.53;3.87;;;;;;;14.88;60.53;98364.31;6945833;28;20291;-82
2023/05/12 01:17:53;;;;;;;4.27;3.90;;;;;;;15.36;60.40;98421.72;6946152;28;20341;-81
2023/05/12 01:21:15;;;;;;;3.97;3.67;;;;;;;15.74;60.19;98446.31;6946142;28;20287;-80
2023/05/12 01:24:43;;;;;;;4.73;4.27;;;;;;;15.96;59.24;98433.59;6945037;28;20220;-81
2023/05/12 01:28:06;;;;;;;4.40;3.97;;;;;;;16.03;58.90;98426.09;6945951;28;20228;-81
2023/05/12 01:31:29;;;;;;;5.17;4.70;;;;;;;15.94;59.06;98433.88;6945778;28;20828;-80
2023/05/12 01:34:50;;;;;;;8.23;4.07;;;;;;;16.02;58.64;98438.88;6945224;28;20299;-80
2023/05/12 01:38:12;;;;;;;4.93;4.53;;;;;;;15.15;60.13;98446.84;6945266;28;20196;-81
2023/05/12 01:41:33;;;;;;;5.17;4.70;;;;;;;15.48;60.10;98431.47;6945729;28;20735;-81
2023/05/12 01:44:56;;;;;;;5.47;4.97;;;;;;;15.60;60.36;98432.22;6945355;28;20348;-80
2023/05/12 01:48:17;;;;;;;5.90;5.20;;;;;;;15.54;60.37;98429.66;6945833;28;20258;-80
2023/05/12 01:51:39;;;;;;;5.87;5.27;;;;;;;15.69;60.61;98443.50;6945280;28;20230;-80
2023/05/12 01:55:00;;;;;;;6.60;5.13;;;;;;;15.76;60.58;98442.25;6945346;28;20208;-80
2023/05/12 01:58:22;;;;;;;7.00;5.27;;;;;;;15.10;60.58;98390.53;6945971;28;20212;-80
2023/05/12 02:01:45;;;;;;;42.23;27.17;;;;;;;15.69;60.41;98440.78;6948337;28;20284;-81
2023/05/12 02:05:07;;;;;;;5.60;5.10;;;;;;;15.58;60.59;98436.25;6945563;28;20305;-81
2023/05/12 02:08:28;;;;;;;5.40;4.90;;;;;;;15.19;61.27;98445.28;6945455;28;20784;-80
2023/05/12 02:11:50;;;;;;;5.20;4.73;;;;;;;15.36;61.03;98408.16;6946384;28;20228;-81
2023/05/12 02:15:11;;;;;;;5.47;4.77;;;;;;;15.15;61.56;98438.69;6946402;28;20284;-82
2023/05/12 02:18:34;;;;;;;5.87;5.37;;;;;;;15.30;61.14;98437.09;6946650;28;20240;-82
2023/05/12 02:21:56;;;;;;;9.73;6.07;;;;;;;15.02;62.38;98441.69;6945470;28;20206;-82
2023/05/12 02:25:17;;;;;;;6.13;5.60;;;;;;;15.57;61.53;98438.13;6946523;28;20342;-81
2023/05/12 02:28:39;;;;;;;6.27;5.27;;;;;;;15.56;60.80;98428.34;6945910;28;20354;-81
2023/05/12 02:32:01;;;;;;;5.67;5.23;;;;;;;15.79;60.49;98419.19;6945019;28;20227;-82
2023/05/12 02:35:24;;;;;;;6.40;5.53;;;;;;;15.94;60.47;98439.31;6946211;28;20220;-82
2023/05/12 02:38:45;;;;;;;6.43;4.90;;;;;;;15.94;59.59;98436.59;6945871;28;20290;-82
2023/05/12 02:42:07;;;;;;;5.30;4.80;;;;;;;15.46;59.30;98332.25;6946306;28;20686;-81
2023/05/12 02:45:29;;;;;;;5.93;5.33;;;;;;;15.85;59.55;98429.91;6960605;28;20316;-82
2023/05/12 02:48:50;;;;;;;5.97;4.80;;;;;;;15.99;59.71;98422.25;6962063;28;20231;-81
2023/05/12 02:52:13;;;;;;;4.20;3.77;;;;;;;16.17;58.31;98430.13;6964838;28;20297;-82
2023/05/12 02:55:34;;;;;;;4.13;3.77;;;;;;;15.93;58.88;98431.41;6968026;28;20241;-82
2023/05/12 02:58:56;;;;;;;6.53;4.10;;;;;;;15.83;59.02;98423.91;6969735;28;20208;-83
2023/05/12 03:02:17;;;;;;;5.17;4.67;;;;;;;15.28;60.10;98368.59;6961492;28;20285;-82
2023/05/12 03:05:39;;;;;;;7.77;4.87;;;;;;;15.30;60.71;98419.97;6949987;28;20275;-81
2023/05/12 03:09:02;;;;;;;5.73;5.23;;;;;;;15.71;60.39;98427.78;6950489;28;20298;-82
2023/05/12 03:12:24;;;;;;;5.83;5.33;;;;;;;15.80;60.58;98443.41;6949583;28;20229;-82
2023/05/12 03:15:46;;;;;;;6.10;5.40;;;;;;;15.97;59.24;98419.78;6952794;28;20692;-82
2023/05/12 03:19:07;;;;;;;5.43;4.93;;;;;;;16.08;59.40;98442.50;6967294;28;20243;-82
2023/05/12 03:22:29;;;;;;;6.10;5.50;;;;;;;16.06;59.42;98426.44;6948426;28;20203;-82
2023/05/12 03:25:51;;;;;;;5.63;5.13;;;;;;;15.98;59.96;98434.22;6949934;28;20293;-81
2023/05/12 03:29:13;;;;;;;6.97;5.83;;;;;;;15.95;59.55;98399.34;6950324;28;20352;-82
2023/05/12 03:32:37;;;;;;;10.93;8.10;;;;;;;16.03;60.12;98434.25;6949573;28;20320;-81
2023/05/12 03:35:59;;;;;;;9.87;8.73;;;;;;;16.22;59.56;98430.22;6950620;28;20612;-82
2023/05/12 03:39:22;;;;;;;11.60;9.67;;;;;;;16.06;60.14;98431.88;6952941;28;20216;-82
2023/05/12 03:42:45;;;;;;;10.87;9.10;;;;;;;16.10;60.25;98424.06;6950377;28;20203;-82
2023/05/12 03:46:06;;;;;;;11.50;9.07;;;;;;;16.11;60.22;98428.41;6951407;28;20314;-82
2023/05/12 03:49:28;;;;;;;9.20;8.20;;;;;;;16.20;59.39;98441.34;6951178;28;20211;-82
2023/05/12 03:52:49;;;;;;;7.87;7.07;;;;;;;16.10;59.63;98413.97;6952850;28;20324;-82
2023/05/12 03:56:11;;;;;;;8.97;6.47;;;;;;;16.27;59.59;98425.66;6950655;28;20364;-82
2023/05/12 03:59:34;;;;;;;9.43;7.10;;;;;;;15.63;60.77;98431.72;6951421;28;20265;-82
2023/05/12 04:02:55;;;;;;;9.80;8.17;;;;;;;15.58;61.78;98414.50;6971735;28;20239;-82
2023/05/12 04:06:17;;;;;;;10.40;8.07;;;;;;;16.09;60.87;98430.53;6979854;28;20644;-82
2023/05/12 04:09:38;;;;;;;9.63;7.53;;;;;;;16.25;60.22;98427.81;6979185;28;20360;-82
2023/05/12 04:13:00;;;;;;;13.50;10.30;;;;;;;16.20;60.36;98425.03;6977259;28;20243;-81
2023/05/12 04:16:22;;;;;;;9.03;7.43;;;;;;;16.31;59.61;98413.22;6977962;28;20317;-81
2023/05/12 04:19:44;;;;;;;10.60;8.10;;;;;;;15.86;59.92;98415.25;6978274;28;20697;-82
2023/05/12 04:23:06;;;;;;;10.00;8.40;;;;;;;15.49;61.88;98402.38;6976965;28;20329;-81
2023/05/12 04:26:27;;;;;;;11.93;8.37;;;;;;;15.39;61.82;98421.25;6977475;28;20229;-81
2023/05/12 04:29:49;;;;;;;9.77;8.57;;;;;;;15.92;61.07;98429.75;6960135;28;20284;-81
2023/05/12 04:33:12;;;;;;;9.67;8.30;;;;;;;15.98;61.12;98429.56;6949109;28;20232;-81
2023/05/12 04:36:33;;;;;;;9.97;8.80;;;;;;;15.98;60.57;98424.13;6958655;28;20372;-82
2023/05/12 04:39:55;;;;;;;10.30;8.60;;;;;;;16.13;60.56;98427.09;6977432;28;20255;-81
2023/05/12 04:43:16;;;;;;;11.83;9.63;;;;;;;16.27;60.39;98443.91;6950774;28;20675;-82
2023/05/12 04:46:38;;;;;;;10.87;9.37;;;;;;;15.96;61.05;98415.41;6954922;28;20230;-82
2023/05/12 04:50:01;;;;;;;10.37;9.30;;;;;;;16.32;60.41;98406.69;6961317;28;20205;-81
2023/05/12 04:53:23;;;;;;;15.73;11.00;;;;;;;16.50;60.38;98428.19;6975308;28;20240;-81
2023/05/12 04:56:44;;;;;;;10.57;9.47;;;;;;;16.34;61.06;98442.63;6978052;28;20318;-82
2023/05/12 05:00:07;;;;;;;11.07;9.97;;;;;;;16.36;60.79;98431.50;6977129;28;20272;-81
2023/05/12 05:03:29;;;;;;;13.50;12.10;;;;;;;16.75;60.53;98449.50;6982338;28;20346;-82
2023/05/12 05:06:54;;;;;;;10.63;9.60;;;;;;;16.69;60.14;98454.03;6976801;28;20247;-81
2023/05/12 05:10:15;;;;;;;11.17;8.83;;;;;;;16.73;59.92;98454.34;6977323;28;20224;-81
2023/05/12 05:13:37;;;;;;;9.40;8.40;;;;;;;16.78;59.63;98457.13;6976394;28;20318;-82
2023/05/12 05:16:59;;;;;;;10.00;8.67;;;;;;;16.68;59.44;98446.94;6976790;28;20229;-82
2023/05/12 05:20:21;;;;;;;10.53;8.77;;;;;;;16.86;59.30;98465.69;6958494;28;20220;-81
2023/05/12 05:23:44;;;;;;;8.60;7.80;;;;;;;17.03;58.01;98462.88;6957299;28;20210;-80
2023/05/12 05:27:05;;;;;;;10.13;8.30;;;;;;;17.01;58.06;98463.16;6970217;28;20350;-82
2023/05/12 05:30:27;;;;;;;9.87;8.93;;;;;;;16.79;58.71;98448.72;6973774;28;20269;-81
2023/05/12 05:33:48;;;;;;;9.37;8.47;;;;;;;16.65;59.54;98469.25;6947343;28;20340;-83
2023/05/12 05:37:10;;;;;;;9.37;8.33;;;;;;;16.98;59.14;98451.97;6958706;28;20246;-82
2023/05/12 05:40:33;;;;;;;9.70;8.37;;;;;;;16.68;60.01;98465.19;6955605;28;20352;-82
2023/05/12 05:43:54;;;;;;;9.37;8.47;;;;;;;16.90;59.52;98466.00;6977207;28;20258;-82
2023/05/12 05:47:16;;;;;;;9.37;8.47;;;;;;;17.16;59.12;98470.69;6962345;28;20237;-82
2023/05/12 05:50:37;;;;;;;8.53;7.73;;;;;;;17.24;57.74;98454.72;6955958;28;20664;-82
2023/05/12 05:53:59;;;;;;;7.90;7.20;;;;;;;17.11;58.18;98463.25;6956592;28;20221;-82
2023/05/12 05:57:22;;;;;;;9.77;8.87;;;;;;;17.14;58.18;98470.09;6958657;28;20319;-82
2023/05/12 06:00:44;;;;;;;10.77;9.77;;;;;;;17.22;57.75;98442.44;6957757;28;20384;-82
2023/05/12 06:04:05;;;;;;;9.90;8.90;;;;;;;17.28;58.30;98476.81;6965692;28;20208;-83
2023/05/12 06:07:27;;;;;;;11.47;10.17;;;;;;;17.36;58.35;98463.56;6974573;28;20264;-83
2023/05/12 06:10:48;;;;;;;10.87;9.83;;;;;;;17.18;58.66;98465.81;6975672;28;20352;-83
2023/05/12 06:14:11;;;;;;;11.40;10.00;;;;;;;16.94;59.86;98478.88;6956503;28;20314;-82
2023/05/12 06:17:33;;;;;;;11.80;10.57;;;;;;;17.22;59.15;98483.28;6947737;28;20305;-80
2023/05/12 06:20:54;;;;;;;13.57;11.90;;;;;;;16.87;59.74;98471.97;6966061;28;20221;-82
2023/05/12 06:24:16;;;;;;;12.20;10.80;;;;;;;17.44;58.45;98481.38;6951881;28;20273;-82
2023/05/12 06:27:37;;;;;;;10.90;9.90;;;;;;;17.51;57.38;98457.50;6952664;28;20369;-82
2023/05/12 06:31:00;;;;;;;13.47;10.90;;;;;;;17.64;56.98;98484.31;6971070;28;20359;-81
2023/05/12 06:34:22;;;;;;;14.07;11.90;;;;;;;17.31;58.14;98485.31;6966214;28;20226;-83
2023/05/12 06:37:48;;;;;;;11.90;10.70;;;;;;;17.27;59.46;98494.25;6967946;28;20231;-81
2023/05/12 06:41:09;;;;;;;12.23;10.77;;;;;;;17.23;59.34;98493.13;6957004;28;20204;-82
2023/05/12 06:44:31;;;;;;;11.27;10.17;;;;;;;17.28;59.30;98474.91;6952614;28;20210;-82
2023/05/12 06:47:54;;;;;;;12.30;11.10;;;;;;;17.65;58.61;98485.97;6963124;28;20293;-82
2023/05/12 06:51:15;;;;;;;12.10;10.80;;;;;;;17.82;57.74;98489.41;6961094;28;20215;-81
2023/05/12 06:54:37;;;;;;;12.03;10.10;;;;;;;17.55;58.41;98483.13;6979155;28;20209;-81
2023/05/12 06:57:58;;;;;;;11.27;10.17;;;;;;;18.08;57.56;98494.00;6984539;28;20856;-81
2023/05/12 07:01:20;;;;;;;11.13;10.03;;;;;;;18.14;55.94;98452.03;6984122;28;20282;-81
2023/05/12 07:04:43;;;;;;;11.10;10.10;;;;;;;18.21;56.12;98475.28;6955956;28;20218;-81
2023/05/12 07:08:05;;;;;;;9.73;8.77;;;;;;;18.63;55.39;98484.31;6955335;28;20298;-81
2023/05/12 07:11:26;;;;;;;11.10;9.43;;;;;;;18.56;55.27;98469.25;6953815;28;20208;-81
2023/05/12 07:14:48;;;;;;;7.83;7.13;;;;;;;18.46;54.68;98489.13;6952229;28;20196;-81
2023/05/12 07:18:09;;;;;;;7.00;6.40;;;;;;;18.43;55.58;98483.38;6952024;28;20256;-80
2023/05/12 07:21:32;;;;;;;8.57;7.87;;;;;;;18.60;55.76;98470.38;6951719;28;20314;-81
2023/05/12 07:24:54;;;;;;;7.93;7.13;;;;;;;17.89;56.35;98488.13;6950096;28;20226;-82
2023/05/12 07:28:15;;;;;;;7.83;7.13;;;;;;;18.13;56.52;98473.03;6949491;28;20287;-81
2023/05/12 07:31:37;;;;;;;7.83;7.13;;;;;;;17.63;57.51;98474.50;6955400;28;20273;-81
2023/05/12 07:34:58;;;;;;;7.13;6.43;;;;;;;18.88;54.96;98472.72;6957201;28;20214;-81
2023/05/12 07:38:21;;;;;;;7.90;7.10;;;;;;;19.28;53.02;98475.66;6973457;28;20326;-81
2023/05/12 07:41:43;;;;;;;7.47;6.77;;;;;;;19.30;52.59;98474.31;6955561;28;20284;-83
2023/05/12 07:45:05;;;;;;;6.73;6.20;;;;;;;19.30;52.36;98482.50;6952906;28;20207;-80
2023/05/12 07:48:26;;;;;;;6.90;5.80;;;;;;;19.06;52.14;98434.84;6953910;28;20238;-81
2023/05/12 07:51:48;;;;;;;5.93;5.37;;;;;;;19.36;52.40;98478.69;6964842;28;20261;-82
2023/05/12 07:55:11;;;;;;;7.10;6.40;;;;;;;19.46;52.35;98475.16;6953253;28;20721;-82
2023/05/12 07:58:32;;;;;;;6.40;5.00;;;;;;;19.24;52.88;98436.28;6979008;28;20691;-82
2023/05/12 08:01:54;;;;;;;4.37;4.07;;;;;;;18.99;51.86;98439.69;6979381;28;20210;-82
2023/05/12 08:05:15;;;;;;;4.37;4.07;;;;;;;19.22;51.33;98461.13;6979009;28;20657;-81
2023/05/12 08:08:37;;;;;;;4.27;3.87;;;;;;;18.86;51.21;98472.97;6966963;28;20199;-81
2023/05/12 08:12:00;;;;;;;4.90;4.40;;;;;;;18.50;53.66;98465.69;6950608;28;20234;-81
2023/05/12 08:15:21;;;;;;;4.03;3.73;;;;;;;18.44;52.28;98474.94;6951212;28;20704;-81
2023/05/12 08:18:43;;;;;;;4.00;3.70;;;;;;;17.87;53.69;98456.72;6955796;28;20226;-81
2023/05/12 08:22:05;;;;;;;4.50;4.10;;;;;;;18.62;54.07;98469.03;6978888;28;20237;-81
2023/05/12 08:25:29;;;;;;;4.27;3.97;;;;;;;18.84;52.08;98480.63;6978913;28;20384;-81
2023/05/12 08:28:52;;;;;;;4.87;4.00;;;;;;;19.19;51.24;98478.06;6970149;28;20292;-82
2023/05/12 08:32:13;;;;;;;4.27;3.90;;;;;;;19.97;50.13;98471.38;6964659;28;20310;-81
2023/05/12 08:35:35;;;;;;;5.07;4.67;;;;;;;19.03;52.67;98472.78;6970373;28;20241;-81
2023/05/12 08:38:57;;;;;;;4.20;3.80;;;;;;;19.57;51.20;98472.16;6959559;28;20207;-81
2023/05/12 08:42:27;;;;;;;4.27;3.87;;;;;;;20.39;49.97;98459.09;6974548;28;20206;-82
2023/05/12 08:45:50;;;;;;;3.20;3.00;;;;;;;20.54;49.08;98442.63;6979373;28;20234;-81
2023/05/12 08:49:15;;;;;;;3.27;3.00;;;;;;;20.58;47.73;98457.41;6972820;28;20229;-82
2023/05/12 08:52:36;;;;;;;3.50;3.20;;;;;;;20.12;49.28;98452.28;6979106;28;20352;-82
2023/05/12 08:56:00;;;;;;;3.23;3.03;;;;;;;20.53;46.79;98473.03;6979350;28;20276;-81
2023/05/12 08:59:23;;;;;;;3.30;3.10;;;;;;;21.56;46.03;98470.19;6978612;28;20263;-81
2023/05/12 09:02:47;;;;;;;3.43;3.17;;;;;;;21.42;45.75;98471.94;6979825;28;20266;-82
2023/05/12 09:06:09;;;;;;;5.17;3.33;;;;;;;19.92;48.12;98453.06;6979886;28;20724;-82
2023/05/12 09:09:32;;;;;;;2.70;2.50;;;;;;;19.86;48.90;98458.81;6979574;28;20211;-82
2023/05/12 09:12:55;;;;;;;3.20;2.77;;;;;;;20.63;48.23;98473.81;6979397;28;20231;-82
2023/05/12 09:16:20;;;;;;;3.40;3.13;;;;;;;21.01;47.61;98470.47;6979991;28;20388;-81
2023/05/12 09:19:43;;;;;;;3.03;2.80;;;;;;;21.04;45.83;98466.34;6981832;28;20219;-81
2023/05/12 09:23:15;;;;;;;2.67;2.47;;;;;;;20.37;47.42;98465.94;6980363;28;20214;-81
2023/05/12 09:26:45;;;;;;;2.67;2.47;;;;;;;20.55;47.00;98474.41;6981319;28;20318;-82
2023/05/12 09:30:08;;;;;;;3.37;3.10;;;;;;;20.27;47.92;98476.91;6981534;28;20680;-82
2023/05/12 09:33:34;;;;;;;2.97;2.77;;;;;;;20.63;46.55;98442.88;6981834;28;20254;-81
2023/05/12 09:36:59;;;;;;;3.00;2.80;;;;;;;21.55;45.83;98471.31;6986495;28;20309;-83
2023/05/12 09:40:21;;;;;;;2.90;2.60;;;;;;;21.89;44.63;98466.72;6988004;28;20201;-80
2023/05/12 09:43:45;;;;;;;3.13;2.70;;;;;;;21.61;44.54;98427.06;6984372;28;20287;-82
2023/05/12 09:47:09;;;;;;;2.60;2.40;;;;;;;22.01;44.30;98467.97;6984395;28;20229;-81
2023/05/12 09:50:30;;;;;;;3.43;3.13;;;;;;;22.25;44.49;98470.81;6989888;28;20211;-82
2023/05/12 09:53:53;;;;;;;2.10;2.00;;;;;;;22.18;43.80;98473.88;6973793;28;20227;-82
2023/05/12 09:57:16;;;;;;;2.23;2.03;;;;;;;20.50;46.03;98446.19;6979996;28;20309;-82
2023/05/12 10:00:39;;;;;;;2.23;2.10;;;;;;;19.49;49.13;98407.06;6979231;28;20209;-81
2023/05/12 10:04:01;;;;;;;2.20;2.10;;;;;;;21.02;47.72;98463.88;6979043;28;20213;-84
2023/05/12 10:07:26;;;;;;;3.40;2.40;;;;;;;20.63;47.63;98468.34;6957257;28;20312;-81
2023/05/12 10:10:51;;;;;;;2.83;2.50;;;;;;;19.49;48.93;98448.09;6953029;28;20208;-85
2023/05/12 10:14:13;;;;;;;2.50;2.30;;;;;;;19.99;49.51;98474.69;6952058;28;20264;-83
2023/05/12 10:17:35;;;;;;;2.57;2.37;;;;;;;19.89;49.37;98461.81;6953848;28;20284;-84
2023/05/12 10:20:57;;;;;;;3.10;2.80;;;;;;;19.30;51.66;98468.00;6953037;28;20299;-84
2023/05/12 10:24:20;;;;;;;2.83;2.63;;;;;;;19.12;50.94;98370.06;6952483;28;20294;-84
2023/05/12 10:27:44;;;;;;;3.13;2.53;;;;;;;19.47;50.36;98413.91;6956386;28;20309;-83
2023/05/12 10:31:07;;;;;;;3.23;3.03;;;;;;;18.24;53.92;98446.63;6953529;28;20207;-85
2023/05/12 10:34:33;;;;;;;3.47;2.90;;;;;;;18.13;56.39;98492.16;6953667;28;20219;-85
2023/05/12 10:37:55;;;;;;;2.50;2.20;;;;;;;18.23;55.57;98488.66;6952036;28;20273;-80
2023/05/12 10:41:16;;;;;;;2.00;1.90;;;;;;;17.86;53.89;98487.81;6952656;28;20638;-80
2023/05/12 10:44:50;;;;;;;2.80;2.10;;;;;;;18.87;51.19;98471.88;6952558;28;20671;-83
2023/05/12 10:48:15;;;;;;;2.07;1.97;;;;;;;19.79;49.52;98483.69;6952096;28;20233;-82
2023/05/12 10:51:48;;;;;;;3.77;3.00;;;;;;;19.50;49.73;98489.91;6951484;28;20245;-84
2023/05/12 10:55:12;;;;;;;2.87;2.37;;;;;;;19.62;48.90;98485.84;6952416;28;20231;-81
2023/05/12 10:58:34;;;;;;;2.23;2.03;;;;;;;19.03;51.80;98490.00;6952299;28;20212;-82
2023/05/12 11:02:01;;;;;;;4.57;2.30;;;;;;;20.19;48.31;98463.75;6957473;28;20711;-82
2023/05/12 11:05:33;;;;;;;2.37;2.20;;;;;;;19.80;50.19;98490.00;6972095;28;20300;-82
2023/05/12 11:08:55;;;;;;;2.30;2.20;;;;;;;19.77;48.92;98505.03;6974606;28;20329;-82
2023/05/12 11:12:17;;;;;;;2.63;2.43;;;;;;;19.22;51.54;98496.66;6951752;28;20256;-82
2023/05/12 11:15:39;;;;;;;2.60;2.40;;;;;;;19.50;50.22;98468.03;6954034;28;20762;-83
2023/05/12 11:19:03;;;;;;;2.87;2.10;;;;;;;19.86;49.42;98486.19;6961945;28;20241;-82
2023/05/12 11:22:25;;;;;;;2.17;2.07;;;;;;;20.56;48.55;98486.16;6950704;28;20294;-82
2023/05/12 11:25:47;;;;;;;2.00;1.90;;;;;;;19.49;50.10;98474.59;6950875;28;20223;-82
2023/05/12 11:29:08;;;;;;;2.40;2.30;;;;;;;18.90;51.11;98497.84;6955966;28;20198;-82
2023/05/12 11:32:30;;;;;;;2.63;2.43;;;;;;;19.45;50.76;98509.88;6968134;28;20289;-82
2023/05/12 11:35:53;;;;;;;2.33;2.23;;;;;;;18.22;53.28;98497.94;6978598;28;20326;-81
2023/05/12 11:39:16;;;;;;;1.87;1.77;;;;;;;18.90;50.31;98489.66;6969294;28;20376;-80
2023/05/12 11:42:40;;;;;;;1.70;1.60;;;;;;;19.29;49.56;98499.16;6977238;28;20195;-81
2023/05/12 11:46:01;;;;;;;1.90;1.80;;;;;;;18.80;48.90;98493.16;6978736;28;20230;-80
2023/05/12 11:49:23;;;;;;;2.10;2.00;;;;;;;19.12;49.01;98488.41;6974729;28;20656;-80
2023/05/12 11:52:46;;;;;;;2.07;1.97;;;;;;;20.27;45.56;98490.59;6975358;28;20246;-80
2023/05/12 11:56:07;;;;;;;2.67;2.00;;;;;;;20.89;44.51;98491.06;6975703;28;20319;-81
2023/05/12 11:59:30;;;;;;;2.07;1.97;;;;;;;20.69;45.72;98483.69;7001171;28;20224;-81
2023/05/12 12:02:51;;;;;;;2.00;1.90;;;;;;;21.23;44.24;98496.41;6968324;28;20234;-81
2023/05/12 12:06:13;;;;;;;2.20;2.10;;;;;;;21.50;42.68;98474.91;6975414;28;20729;-82
2023/05/12 12:09:39;;;;;;;2.30;2.20;;;;;;;21.42;43.33;98494.69;6977978;28;20226;-81
2023/05/12 12:13:01;;;;;;;3.10;2.63;;;;;;;20.43;44.62;98500.44;6972515;28;20208;-81
2023/05/12 12:16:24;;;;;;;2.50;2.30;;;;;;;21.23;45.22;98496.41;6965959;28;20703;-80
2023/05/12 12:19:46;;;;;;;2.60;2.40;;;;;;;21.98;43.19;98481.47;6955694;28;20216;-80
2023/05/12 12:23:08;;;;;;;3.07;2.87;;;;;;;22.04;42.76;98502.28;6950756;28;20217;-80
2023/05/12 12:26:31;;;;;;;3.40;3.20;;;;;;;22.05;42.50;98493.78;6966593;28;20279;-80
2023/05/12 12:29:52;;;;;;;3.37;3.07;;;;;;;21.79;43.69;98502.47;6962955;28;20213;-78
2023/05/12 12:33:14;;;;;;;3.77;3.20;;;;;;;21.92;43.30;98508.16;6957109;28;20253;-79
2023/05/12 12:36:35;;;;;;;4.43;3.63;;;;;;;20.91;45.06;98528.06;6974198;28;20317;-78
2023/05/12 12:39:57;;;;;;;4.33;3.93;;;;;;;19.48;50.91;98523.03;6946838;28;20207;-79
2023/05/12 12:43:20;;;;;;;4.20;3.90;;;;;;;19.22;52.75;98496.66;6964718;28;20228;-81
2023/05/12 12:46:42;;;;;;;5.27;4.77;;;;;;;18.72;54.92;98521.00;6974203;28;20893;-81
2023/05/12 12:50:04;;;;;;;5.43;4.57;;;;;;;18.14;56.65;98506.59;6973537;28;20568;-80
2023/05/12 12:53:26;;;;;;;5.27;4.77;;;;;;;18.00;57.33;98530.78;6975808;28;20317;-80
2023/05/12 12:56:47;;;;;;;5.73;5.10;;;;;;;19.23;55.57;98524.84;6975934;28;20234;-80
2023/05/12 13:00:12;;;;;;;4.73;4.33;;;;;;;19.67;53.64;98528.78;6976881;28;20248;-80
2023/05/12 13:03:33;;;;;;;4.70;4.30;;;;;;;20.14;52.86;98491.97;6977674;28;20202;-80
2023/05/12 13:06:55;;;;;;;5.43;4.90;;;;;;;20.42;52.39;98524.28;6978167;28;20295;-80
2023/05/12 13:10:16;;;;;;;5.00;4.60;;;;;;;20.42;51.53;98513.31;6978328;28;20198;-80
2023/05/12 13:13:38;;;;;;;6.87;4.70;;;;;;;20.54;50.76;98513.03;6978217;28;20317;-81
2023/05/12 13:17:01;;;;;;;4.73;4.23;;;;;;;19.96;51.74;98533.53;6977936;28;20291;-80
2023/05/12 13:20:22;;;;;;;6.50;4.57;;;;;;;19.09;52.63;98493.56;6978591;28;20210;-80
2023/05/12 13:23:44;;;;;;;5.43;4.93;;;;;;;19.21;54.84;98527.03;6958976;28;20212;-80
2023/05/12 13:27:07;;;;;;;5.20;4.80;;;;;;;20.13;52.02;98516.88;6959936;28;20235;-80
2023/05/12 13:30:28;;;;;;;5.47;4.97;;;;;;;20.51;49.92;98487.00;6961408;28;20306;-80
2023/05/12 13:33:51;;;;;;;5.10;4.70;;;;;;;20.78;50.87;98521.19;6972272;28;20230;-80
2023/05/12 13:37:13;;;;;;;5.57;5.03;;;;;;;20.32;50.16;98507.00;6971368;28;20311;-80
2023/05/12 13:40:34;;;;;;;5.57;5.00;;;;;;;19.75;51.77;98529.09;6954008;28;20294;-81
2023/05/12 13:43:56;;;;;;;5.70;4.70;;;;;;;20.53;50.40;98522.34;6950515;28;20296;-80
2023/05/12 13:47:17;;;;;;;5.13;4.73;;;;;;;20.87;49.24;98526.13;6975024;28;20249;-79
2023/05/12 13:50:40;;;;;;;5.67;5.27;;;;;;;20.63;48.33;98509.44;6977855;28;20209;-80
2023/05/12 13:54:02;;;;;;;5.40;5.00;;;;;;;19.05;50.88;98506.13;6973533;28;20233;-80
2023/05/12 13:57:23;;;;;;;5.03;4.63;;;;;;;19.65;50.54;98509.13;6980902;28;20595;-80
2023/05/12 14:00:46;;;;;;;5.27;4.60;;;;;;;20.09;47.39;98521.22;6980486;28;20508;-79
2023/05/12 14:04:08;;;;;;;7.03;4.60;;;;;;;19.32;49.83;98515.00;6980134;28;20322;-81
2023/05/12 14:07:31;;;;;;;5.23;4.77;;;;;;;18.42;51.74;98490.75;6980771;28;20309;-81
2023/05/12 14:10:52;;;;;;;4.87;4.47;;;;;;;18.97;52.49;98517.56;6981962;28;20203;-81
2023/05/12 14:14:14;;;;;;;5.20;4.53;;;;;;;19.14;50.98;98523.66;6946209;28;20292;-80
2023/05/12 14:17:35;;;;;;;5.00;4.60;;;;;;;19.02;50.94;98518.41;6948374;28;20278;-80
2023/05/12 14:20:57;;;;;;;5.07;4.67;;;;;;;19.26;50.63;98495.06;6949244;28;20203;-80
2023/05/12 14:24:20;;;;;;;6.07;5.47;;;;;;;20.39;49.38;98524.81;6973512;28;20218;-80
2023/05/12 14:27:42;;;;;;;5.30;4.90;;;;;;;20.70;48.77;98526.41;6965693;28;20256;-80
2023/05/12 14:31:03;;;;;;;6.27;5.73;;;;;;;19.24;50.98;98537.41;6983192;28;20717;-80
2023/05/12 14:34:25;;;;;;;6.13;5.30;;;;;;;19.00;51.88;98517.03;6981926;28;20253;-79
2023/05/12 14:37:46;;;;;;;5.53;5.13;;;;;;;19.59;50.94;98537.53;6980059;28;20379;-80
2023/05/12 14:41:09;;;;;;;5.03;4.63;;;;;;;19.34;50.30;98490.97;6982970;28;20289;-80
2023/05/12 14:44:31;;;;;;;5.03;4.63;;;;;;;20.15;49.12;98526.44;6986559;28;20199;-80
2023/05/12 14:47:53;;;;;;;5.47;5.07;;;;;;;20.40;48.09;98534.66;6983394;28;20238;-80
2023/05/12 14:51:15;;;;;;;6.00;4.93;;;;;;;19.66;50.72;98527.16;6963585;28;20684;-80
2023/05/12 14:54:36;;;;;;;5.27;4.77;;;;;;;20.39;50.02;98532.22;6962267;28;20227;-80
2023/05/12 14:57:59;;;;;;;6.10;5.60;;;;;;;19.95;50.97;98520.94;6971555;28;20215;-80
2023/05/12 15:01:20;;;;;;;5.97;5.47;;;;;;;20.28;50.74;98536.84;6990655;28;20198;-80
2023/05/12 15:04:42;;;;;;;5.80;5.37;;;;;;;20.46;50.52;98536.31;6990639;28;20195;-80
2023/05/12 15:08:04;;;;;;;6.40;5.80;;;;;;;19.64;52.34;98549.31;6977125;28;20225;-80
2023/05/12 15:11:25;;;;;;;5.73;5.23;;;;;;;19.71;52.50;98549.06;6976126;28;20226;-78
2023/05/12 15:14:48;;;;;;;5.53;5.13;;;;;;;20.01;51.89;98549.97;6971940;28;20269;-79
2023/05/12 15:18:10;;;;;;;4.93;4.43;;;;;;;19.86;50.92;98538.97;6995380;28;20252;-82
2023/05/12 15:21:33;;;;;;;4.83;3.97;;;;;;;20.14;49.60;98535.75;6993275;28;20257;-81
2023/05/12 15:24:54;;;;;;;5.03;4.10;;;;;;;18.52;51.85;98561.00;6982936;28;20222;-81
2023/05/12 15:28:16;;;;;;;3.90;3.60;;;;;;;19.21;49.36;98518.81;6978111;28;20262;-79
2023/05/12 15:31:39;;;;;;;3.97;3.67;;;;;;;19.48;48.79;98553.09;6979592;28;20838;-81
2023/05/12 15:35:00;;;;;;;3.43;3.23;;;;;;;19.29;48.51;98553.84;6974983;28;20243;-80
2023/05/12 15:38:22;;;;;;;3.73;3.43;;;;;;;19.75;47.50;98540.03;6960408;28;20300;-81
2023/05/12 15:41:43;;;;;;;4.83;3.80;;;;;;;19.69;48.73;98554.78;6961421;28;20229;-82
2023/05/12 15:45:06;;;;;;;4.77;3.40;;;;;;;19.62;47.81;98562.44;6964404;28;20640;-82
2023/05/12 15:48:29;;;;;;;4.33;3.67;;;;;;;19.25;49.50;98555.44;6983908;28;20258;-82